Time;durP1;ratioP1;P1;durP2;ratioP2;P2;SDS_P1;SDS_P2;PMS_P1;PMS_P2;Temp;Humidity;BMP_temperature;BMP_pressure;BME280_temperature;BME280_humidity;BME280_pressure;Samples;Min_cycle;Max_cycle;Signal;HPM_P1;HPM_P2
2023/11/03 00:00:31;;;;;;;4.53;1.33;;;;;;;9.57;100.00;98094.78;4939679;29;20038;-77
2023/11/03 00:02:59;;;;;;;4.72;1.50;;;;;;;9.54;100.00;98095.41;4935753;29;20114;-76
2023/11/03 00:05:25;;;;;;;;;;;;;;;9.53;100.00;98082.41;4923625;29;20118;-76
2023/11/03 00:07:53;;;;;;;3.97;1.20;;;;;;;9.49;100.00;98081.50;4927430;29;19962;-77
2023/11/03 00:10:19;;;;;;;6.45;1.58;;;;;;;9.48;100.00;98078.06;4943008;29;20126;-76
2023/11/03 00:12:45;;;;;;;;;;;;;;;9.48;100.00;98082.59;4930190;29;20493;-73
2023/11/03 00:15:11;;;;;;;3.60;1.20;;;;;;;9.46;100.00;98079.47;4940304;29;20544;-78
2023/11/03 00:17:37;;;;;;;3.80;1.10;;;;;;;9.48;100.00;98078.06;4905340;29;20725;-77
2023/11/03 00:20:03;;;;;;;;;;;;;;;9.45;100.00;98073.34;4923729;29;20090;-78
2023/11/03 00:22:30;;;;;;;2.95;1.30;;;;;;;9.45;100.00;98069.91;4940031;29;19918;-75
2023/11/03 00:24:55;;;;;;;7.15;1.33;;;;;;;9.45;100.00;98067.22;4935245;29;20042;-77
2023/11/03 00:27:21;;;;;;;4.00;1.45;;;;;;;9.43;100.00;98072.13;4921474;29;20040;-76
2023/11/03 00:29:47;;;;;;;4.50;1.20;;;;;;;9.42;100.00;98063.31;4942488;28;20795;-78
2023/11/03 00:32:15;;;;;;;4.78;1.30;;;;;;;9.42;100.00;98060.66;4908701;29;20071;-75
2023/11/03 00:34:40;;;;;;;5.47;1.10;;;;;;;9.42;100.00;98068.66;4923541;29;20730;-77
2023/11/03 00:37:07;;;;;;;3.20;1.13;;;;;;;9.43;100.00;98064.09;4922163;29;20043;-77
2023/11/03 00:39:32;;;;;;;4.35;1.48;;;;;;;9.43;100.00;98056.09;4907363;29;20119;-78
2023/11/03 00:41:58;;;;;;;6.95;1.38;;;;;;;9.41;100.00;98060.97;4940289;29;20054;-74
2023/11/03 00:44:25;;;;;;;4.13;1.50;;;;;;;9.40;100.00;98059.41;4922136;29;20039;-79
2023/11/03 00:46:51;;;;;;;12.75;1.63;;;;;;;9.40;100.00;98068.19;4938586;29;20423;-77
2023/11/03 00:49:18;;;;;;;3.88;1.30;;;;;;;9.37;100.00;98068.84;4912744;29;20505;-77
2023/11/03 00:51:45;;;;;;;3.97;1.17;;;;;;;9.35;100.00;98063.06;4921679;29;20043;-78
2023/11/03 00:54:10;;;;;;;4.13;1.40;;;;;;;9.33;100.00;98059.91;4904737;29;20051;-76
2023/11/03 00:56:36;;;;;;;2.88;1.40;;;;;;;9.32;100.00;98062.94;4920152;29;20035;-77
2023/11/03 00:59:06;;;;;;;4.78;1.30;;;;;;;9.32;100.00;98053.03;4939321;29;20077;-75
2023/11/03 01:01:32;;;;;;;7.22;1.67;;;;;;;9.33;100.00;98065.25;4930664;29;20557;-80
2023/11/03 01:03:58;;;;;;;3.28;1.13;;;;;;;9.33;100.00;98057.25;4942851;29;20043;-77
2023/11/03 01:06:23;;;;;;;6.93;1.25;;;;;;;9.33;100.00;98054.56;4908394;29;20066;-79
2023/11/03 01:08:51;;;;;;;2.90;1.20;;;;;;;9.36;100.00;98063.84;4930116;29;20045;-78
2023/11/03 01:11:23;;;;;;;4.18;1.08;;;;;;;9.38;100.00;98053.59;4921305;29;20070;-77
2023/11/03 01:13:50;;;;;;;2.97;1.10;;;;;;;9.36;100.00;98045.94;4908054;29;20035;-78
2023/11/03 01:16:16;;;;;;;3.95;1.10;;;;;;;9.32;100.00;98049.56;4941858;29;20031;-74
2023/11/03 01:18:45;;;;;;;4.35;1.20;;;;;;;9.29;100.00;98049.13;4940998;29;20039;-79
2023/11/03 01:21:18;;;;;;;3.70;1.20;;;;;;;9.24;100.00;98051.19;4933480;29;20066;-76
2023/11/03 01:23:49;;;;;;;3.28;1.17;;;;;;;9.23;100.00;98061.09;4927618;29;20486;-80
2023/11/03 01:26:16;;;;;;;2.72;1.20;;;;;;;9.20;100.00;98060.97;4912615;29;20094;-75
2023/11/03 01:28:43;;;;;;;4.97;1.13;;;;;;;9.18;100.00;98063.19;4921454;29;20046;-77
2023/11/03 01:31:10;;;;;;;4.18;1.13;;;;;;;9.17;100.00;98057.06;4941493;29;20039;-73
2023/11/03 01:33:39;;;;;;;4.05;1.52;;;;;;;9.17;100.00;98058.94;4941589;29;20066;-79
2023/11/03 01:36:06;;;;;;;3.83;1.60;;;;;;;9.12;100.00;98059.13;4937186;28;20046;-77
2023/11/03 01:38:31;;;;;;;3.75;1.33;;;;;;;9.11;100.00;98057.56;4919329;29;20074;-77
2023/11/03 01:41:00;;;;;;;7.10;0.98;;;;;;;9.08;100.00;98052.88;4925297;29;20153;-78
2023/11/03 01:43:26;;;;;;;5.78;1.50;;;;;;;9.03;100.00;98051.97;4937876;29;20079;-76
2023/11/03 01:45:52;;;;;;;4.10;1.40;;;;;;;9.01;100.00;98059.53;4902464;29;20162;-76
2023/11/03 01:48:18;;;;;;;2.58;1.10;;;;;;;8.98;100.00;98057.50;4922427;29;20043;-80
2023/11/03 01:50:44;;;;;;;2.95;1.27;;;;;;;8.97;100.00;98063.16;4921708;29;20512;-76
2023/11/03 01:53:15;;;;;;;4.13;1.20;;;;;;;8.96;100.00;98066.94;4927804;29;20061;-78
2023/11/03 01:55:41;;;;;;;2.67;1.40;;;;;;;8.93;100.00;98056.91;4919189;29;20035;-75
2023/11/03 01:58:07;;;;;;;2.53;1.08;;;;;;;8.90;100.00;98063.69;4930324;29;20043;-77
2023/11/03 02:00:33;;;;;;;4.28;1.00;;;;;;;8.89;100.00;98056.78;4920586;29;20436;-78
2023/11/03 02:02:58;;;;;;;2.78;0.95;;;;;;;8.87;100.00;98063.53;4924678;29;20113;-77
2023/11/03 02:05:26;;;;;;;5.55;1.20;;;;;;;8.88;100.00;98059.78;4922936;29;20044;-77
2023/11/03 02:07:52;;;;;;;4.35;1.10;;;;;;;8.87;100.00;98058.97;4938117;29;20031;-78
2023/11/03 02:10:17;;;;;;;4.35;1.20;;;;;;;8.82;100.00;98056.50;4908978;29;20065;-74
2023/11/03 02:12:43;;;;;;;2.97;1.35;;;;;;;8.82;100.00;98048.50;4939129;29;20050;-78
2023/11/03 02:15:10;;;;;;;7.07;1.10;;;;;;;8.80;100.00;98057.91;4921850;29;20823;-74
2023/11/03 02:17:37;;;;;;;3.95;1.27;;;;;;;8.75;100.00;98064.25;4920481;29;20043;-78
2023/11/03 02:20:07;;;;;;;2.85;1.13;;;;;;;8.72;100.00;98072.88;4927069;29;20039;-79
2023/11/03 02:22:34;;;;;;;3.90;1.65;;;;;;;8.64;100.00;98061.16;4924889;29;20493;-79
2023/11/03 02:25:00;;;;;;;3.72;1.10;;;;;;;8.65;100.00;98057.38;4926517;29;20035;-79
2023/11/03 02:27:26;;;;;;;2.72;1.10;;;;;;;8.66;100.00;98058.16;4919819;29;20043;-79
2023/11/03 02:29:54;;;;;;;4.38;1.00;;;;;;;8.61;100.00;98050.34;4923487;29;20043;-76
2023/11/03 02:32:20;;;;;;;3.92;1.27;;;;;;;8.60;100.00;98068.25;4942992;29;20061;-78
2023/11/03 02:34:46;;;;;;;3.42;1.25;;;;;;;8.57;100.00;98070.75;4912008;29;21544;-79
2023/11/03 02:37:11;;;;;;;4.32;1.00;;;;;;;8.57;100.00;98068.09;4924964;29;20066;-77
2023/11/03 02:39:40;;;;;;;3.83;1.48;;;;;;;8.55;100.00;98067.63;4925525;29;20065;-77
2023/11/03 02:42:06;;;;;;;3.72;1.10;;;;;;;8.55;100.00;98056.97;4924362;29;20855;-76
2023/11/03 02:44:32;;;;;;;5.22;1.50;;;;;;;8.51;100.00;98069.38;4920767;29;20051;-78
2023/11/03 02:46:59;;;;;;;2.40;1.10;;;;;;;8.51;100.00;98080.03;4940547;29;20032;-78
2023/11/03 02:49:27;;;;;;;4.90;1.30;;;;;;;8.48;100.00;98095.59;4940408;29;20051;-78
2023/11/03 02:51:52;;;;;;;3.55;1.15;;;;;;;8.47;100.00;98080.69;4904996;29;20404;-77
2023/11/03 02:54:18;;;;;;;6.15;1.10;;;;;;;8.51;100.00;98080.03;4944134;29;20031;-78
2023/11/03 02:56:45;;;;;;;3.53;1.65;;;;;;;8.52;100.00;98074.38;4926390;29;20038;-76
2023/11/03 02:59:12;;;;;;;6.63;1.23;;;;;;;8.49;100.00;98069.69;4906165;29;20059;-77
2023/11/03 03:01:40;;;;;;;3.72;1.35;;;;;;;8.50;100.00;98081.16;4909882;29;20110;-78
2023/11/03 03:04:06;;;;;;;4.30;1.20;;;;;;;8.51;100.00;98074.69;4927478;29;20074;-75
2023/11/03 03:06:33;;;;;;;4.63;1.27;;;;;;;8.54;100.00;98082.09;4941028;29;20031;-78
2023/11/03 03:08:59;;;;;;;;;;;;;;;8.58;100.00;98083.00;4940165;29;20110;-77
2023/11/03 03:11:25;;;;;;;4.93;1.17;;;;;;;8.65;100.00;98083.28;4918082;29;19925;-77
2023/11/03 03:13:51;;;;;;;4.15;1.02;;;;;;;8.68;100.00;98071.97;4909253;29;20043;-74
2023/11/03 03:16:19;;;;;;;4.38;1.27;;;;;;;8.71;100.00;98060.63;4941922;29;20031;-74
2023/11/03 03:18:46;;;;;;;4.57;1.25;;;;;;;8.72;100.00;98064.88;4913466;29;20174;-78
2023/11/03 03:21:17;;;;;;;4.30;1.23;;;;;;;8.74;100.00;98060.00;4925162;29;20032;-77
2023/11/03 03:23:43;;;;;;;5.78;1.40;;;;;;;8.77;100.00;98054.03;4913359;29;20766;-79
2023/11/03 03:26:08;;;;;;;4.65;1.40;;;;;;;8.80;100.00;98047.25;4912361;29;20043;-77
2023/11/03 03:28:34;;;;;;;4.82;1.42;;;;;;;8.80;100.00;98047.25;4924892;29;20043;-75
2023/11/03 03:31:00;;;;;;;6.95;1.13;;;;;;;8.78;100.00;98046.78;4926990;29;20777;-75
2023/11/03 03:33:26;;;;;;;5.38;0.95;;;;;;;8.75;100.00;98033.00;4912053;29;20046;-74
2023/11/03 03:35:51;;;;;;;5.22;1.13;;;;;;;8.77;100.00;98040.69;4933765;29;20038;-77
2023/11/03 03:38:17;;;;;;;3.15;1.17;;;;;;;8.73;100.00;98031.75;4940283;29;20063;-75
2023/11/03 03:40:42;;;;;;;3.90;1.40;;;;;;;8.71;100.00;98033.97;4937675;29;20396;-77
2023/11/03 03:43:08;;;;;;;4.63;1.10;;;;;;;8.69;100.00;98036.97;4942793;29;20046;-76
2023/11/03 03:45:34;;;;;;;5.93;1.38;;;;;;;8.67;100.00;98030.34;4925283;29;20074;-75
2023/11/03 03:47:59;;;;;;;4.38;1.20;;;;;;;8.68;100.00;98031.94;4908748;29;20035;-78
2023/11/03 03:50:25;;;;;;;4.30;1.00;;;;;;;8.66;100.00;98031.47;4939434;29;20134;-77
2023/11/03 03:52:51;;;;;;;5.70;0.98;;;;;;;8.65;100.00;98035.25;4936107;29;20043;-74
2023/11/03 03:55:17;;;;;;;2.92;0.93;;;;;;;8.68;100.00;98039.97;4939745;29;20091;-78
2023/11/03 03:57:43;;;;;;;6.72;1.60;;;;;;;8.66;100.00;98026.13;4940221;29;20054;-76
2023/11/03 04:00:09;;;;;;;5.53;1.40;;;;;;;8.63;100.00;98022.25;4943601;29;20042;-78
2023/11/03 04:02:34;;;;;;;6.45;1.15;;;;;;;8.64;100.00;98028.34;4908087;28;20121;-78
2023/11/03 04:05:01;;;;;;;4.50;1.38;;;;;;;8.61;100.00;98013.78;4922891;29;20051;-77
2023/11/03 04:07:27;;;;;;;5.95;1.20;;;;;;;8.60;100.00;98006.88;4926983;29;20413;-77
2023/11/03 04:09:52;;;;;;;4.85;1.45;;;;;;;8.62;100.00;98009.22;4929240;29;20036;-77
2023/11/03 04:12:18;;;;;;;4.82;1.60;;;;;;;8.61;100.00;98013.00;4937151;29;20039;-77
2023/11/03 04:14:44;;;;;;;4.60;1.45;;;;;;;8.59;100.00;98004.53;4936741;29;20055;-77
2023/11/03 04:17:09;;;;;;;6.53;1.13;;;;;;;8.56;100.00;97999.84;4935175;29;20038;-78
2023/11/03 04:19:35;;;;;;;3.75;1.23;;;;;;;8.56;100.00;98005.19;4925281;29;20071;-78
2023/11/03 04:22:01;;;;;;;5.32;1.13;;;;;;;8.54;100.00;98002.06;4911597;29;20421;-74
2023/11/03 04:24:27;;;;;;;7.40;1.52;;;;;;;8.48;100.00;98002.22;4921561;29;20031;-76
2023/11/03 04:26:54;;;;;;;4.68;1.25;;;;;;;8.48;100.00;97999.56;4924214;29;20048;-78
2023/11/03 04:29:19;;;;;;;;;;;;;;;8.46;100.00;98007.09;4945200;29;20043;-75
2023/11/03 04:31:45;;;;;;;4.40;1.10;;;;;;;8.43;100.00;98002.41;4922841;29;20022;-75
2023/11/03 04:34:11;;;;;;;5.38;1.20;;;;;;;8.45;100.00;98000.19;4923831;29;20038;-76
2023/11/03 04:36:36;;;;;;;6.07;1.70;;;;;;;8.43;100.00;97991.75;4921810;29;20082;-77
2023/11/03 04:39:02;;;;;;;4.95;1.45;;;;;;;8.42;100.00;97989.41;4911784;29;20038;-74
2023/11/03 04:41:28;;;;;;;4.82;1.00;;;;;;;8.38;100.00;97980.47;4940787;29;20126;-77
2023/11/03 04:43:54;;;;;;;6.47;1.23;;;;;;;8.36;100.00;97969.34;4924298;29;20622;-78
2023/11/03 04:46:20;;;;;;;5.63;1.15;;;;;;;8.36;100.00;97978.13;4927294;29;20054;-75
2023/11/03 04:48:46;;;;;;;5.28;1.67;;;;;;;8.36;100.00;97980.81;4939689;29;20125;-77
2023/11/03 04:51:13;;;;;;;6.22;1.65;;;;;;;8.37;100.00;97987.69;4923260;29;20042;-77
2023/11/03 04:53:39;;;;;;;5.75;1.35;;;;;;;8.34;100.00;98009.66;4922684;29;20094;-77
2023/11/03 04:56:06;;;;;;;6.45;1.63;;;;;;;8.31;100.00;98015.59;4920357;29;20035;-76
2023/11/03 04:58:32;;;;;;;7.82;1.33;;;;;;;8.29;100.00;98014.38;4934470;29;20049;-76
2023/11/03 05:00:58;;;;;;;5.13;1.08;;;;;;;8.28;100.00;98018.94;4937753;29;20042;-78
2023/11/03 05:03:24;;;;;;;4.65;0.98;;;;;;;8.25;100.00;98027.56;4912307;29;20039;-79
2023/11/03 05:05:49;;;;;;;6.22;1.48;;;;;;;8.24;100.00;98036.66;4942202;29;20513;-77
2023/11/03 05:08:15;;;;;;;5.65;2.47;;;;;;;8.19;100.00;98031.50;4920103;29;20031;-78
2023/11/03 05:10:41;;;;;;;5.15;1.45;;;;;;;8.16;100.00;98040.16;4925662;29;20031;-78
2023/11/03 05:13:08;;;;;;;3.42;1.05;;;;;;;8.13;100.00;98040.78;4927888;29;20039;-79
2023/11/03 05:15:34;;;;;;;2.47;0.70;;;;;;;8.11;100.00;98042.97;4914878;29;20038;-79
2023/11/03 05:18:00;;;;;;;8.27;1.38;;;;;;;8.05;100.00;98037.03;4929196;29;20472;-75
2023/11/03 05:20:28;;;;;;;5.53;1.10;;;;;;;8.05;100.00;98044.25;4913517;29;20163;-77
2023/11/03 05:22:54;;;;;;;5.60;1.63;;;;;;;8.05;100.00;98050.34;4911216;29;20093;-76
2023/11/03 05:25:20;;;;;;;7.05;1.40;;;;;;;8.02;100.00;98048.34;4931164;29;20032;-75
2023/11/03 05:27:46;;;;;;;6.53;1.58;;;;;;;7.97;100.00;98037.84;4910782;29;20086;-76
2023/11/03 05:30:12;;;;;;;8.73;2.78;;;;;;;7.97;100.00;98034.41;4923357;29;20053;-80
2023/11/03 05:32:38;;;;;;;7.78;2.45;;;;;;;7.94;100.00;98031.28;4924828;29;20039;-76
2023/11/03 05:35:05;;;;;;;4.80;1.75;;;;;;;7.92;100.00;98033.47;4924480;29;20110;-78
2023/11/03 05:37:31;;;;;;;4.50;1.92;;;;;;;7.94;100.00;98033.16;4919588;29;20517;-77
2023/11/03 05:39:57;;;;;;;6.72;2.00;;;;;;;7.94;100.00;98035.81;4907397;29;20098;-76
2023/11/03 05:42:23;;;;;;;6.35;1.80;;;;;;;7.96;100.00;98027.50;4923995;29;20047;-77
2023/11/03 05:44:48;;;;;;;5.30;1.95;;;;;;;7.96;100.00;98030.94;4906285;29;20039;-79
2023/11/03 05:47:14;;;;;;;4.80;1.50;;;;;;;7.94;100.00;98023.28;4924444;29;20054;-76
2023/11/03 05:49:42;;;;;;;4.68;1.60;;;;;;;7.92;100.00;98025.50;4944787;28;20059;-78
2023/11/03 05:52:08;;;;;;;6.07;1.40;;;;;;;7.91;100.00;98021.25;4921379;29;20040;-79
2023/11/03 05:54:34;;;;;;;4.80;1.40;;;;;;;7.93;100.00;98036.94;4915021;29;20027;-78
2023/11/03 05:56:59;;;;;;;5.93;1.17;;;;;;;7.92;100.00;98036.16;4922399;29;20037;-80
2023/11/03 05:59:25;;;;;;;4.93;1.40;;;;;;;7.91;100.00;98029.22;4922466;29;20061;-79
2023/11/03 06:01:52;;;;;;;4.85;1.40;;;;;;;7.92;100.00;98033.47;4924868;29;20039;-78
2023/11/03 06:04:17;;;;;;;3.58;1.08;;;;;;;7.93;100.00;98029.72;4925234;29;20044;-78
2023/11/03 06:06:43;;;;;;;4.30;1.42;;;;;;;7.89;100.00;98028.78;4922741;29;20027;-77
2023/11/03 06:09:11;;;;;;;3.60;1.33;;;;;;;7.85;100.00;98030.50;4939296;29;20114;-76
2023/11/03 06:11:37;;;;;;;6.13;1.23;;;;;;;7.84;100.00;98041.47;4938207;29;20055;-75
2023/11/03 06:14:04;;;;;;;5.90;1.60;;;;;;;7.83;100.00;98054.03;4906020;29;20043;-79
2023/11/03 06:16:30;;;;;;;4.90;1.05;;;;;;;7.82;100.00;98057.00;4913417;29;20031;-78
2023/11/03 06:18:56;;;;;;;9.82;1.92;;;;;;;7.79;100.00;98053.09;4910494;29;20071;-78
2023/11/03 06:21:22;;;;;;;5.03;1.30;;;;;;;7.82;100.00;98065.00;4942575;29;20073;-77
2023/11/03 06:23:49;;;;;;;5.07;1.65;;;;;;;7.84;100.00;98068.91;4940897;29;20055;-75
2023/11/03 06:26:15;;;;;;;6.82;1.63;;;;;;;7.88;100.00;98069.06;4925932;29;20034;-80
2023/11/03 06:28:41;;;;;;;5.68;1.30;;;;;;;7.92;100.00;98072.66;4924533;29;20731;-73
2023/11/03 06:31:10;;;;;;;4.15;1.10;;;;;;;7.91;100.00;98066.53;4906116;29;20036;-79
2023/11/03 06:33:36;;;;;;;4.00;1.08;;;;;;;7.94;100.00;98081.13;4924063;29;20044;-78
2023/11/03 06:36:03;;;;;;;4.88;1.40;;;;;;;7.97;100.00;98079.69;4922542;29;20078;-76
2023/11/03 06:38:32;;;;;;;4.65;1.35;;;;;;;7.98;100.00;98083.94;4909674;29;20129;-78
2023/11/03 06:41:00;;;;;;;9.13;1.70;;;;;;;8.00;100.00;98095.06;4924521;29;20032;-74
2023/11/03 06:43:28;;;;;;;5.70;1.38;;;;;;;8.04;100.00;98094.09;4938704;29;20027;-77
2023/11/03 06:45:53;;;;;;;6.70;1.40;;;;;;;8.05;100.00;98106.31;4906018;29;20031;-76
2023/11/03 06:48:19;;;;;;;3.63;1.08;;;;;;;8.10;100.00;98100.06;4925394;29;20073;-74
2023/11/03 06:50:45;;;;;;;5.03;1.42;;;;;;;8.11;100.00;98102.41;4937403;29;20650;-80
2023/11/03 06:53:10;;;;;;;9.45;1.88;;;;;;;8.16;100.00;98109.47;4938870;29;20059;-77
2023/11/03 06:55:36;;;;;;;4.85;1.63;;;;;;;8.19;100.00;98109.59;4926682;29;20505;-77
2023/11/03 06:58:02;;;;;;;5.47;1.50;;;;;;;8.20;100.00;98100.50;4939654;29;20051;-78
2023/11/03 07:00:28;;;;;;;4.85;1.10;;;;;;;8.27;100.00;98110.69;4936653;28;20055;-77
2023/11/03 07:02:54;;;;;;;6.93;1.58;;;;;;;8.29;100.00;98119.16;4905215;29;20051;-78
2023/11/03 07:05:23;;;;;;;6.45;1.33;;;;;;;8.30;100.00;98115.38;4925643;29;20035;-77
2023/11/03 07:07:50;;;;;;;5.07;1.67;;;;;;;8.33;100.00;98125.41;4922934;29;20047;-76
2023/11/03 07:10:16;;;;;;;5.20;1.73;;;;;;;8.37;100.00;98125.59;4907384;29;20039;-75
2023/11/03 07:12:42;;;;;;;3.70;1.40;;;;;;;8.39;100.00;98129.50;4912252;29;20118;-76
2023/11/03 07:15:11;;;;;;;6.50;1.50;;;;;;;8.43;100.00;98129.66;4925991;29;20125;-75
2023/11/03 07:17:38;;;;;;;6.28;1.25;;;;;;;8.41;100.00;98137.97;4921685;29;20035;-78
2023/11/03 07:20:06;;;;;;;4.80;1.50;;;;;;;8.44;100.00;98129.31;4926890;29;20374;-77
2023/11/03 07:22:32;;;;;;;3.95;1.00;;;;;;;8.46;100.00;98145.78;4925107;29;20563;-79
2023/11/03 07:24:57;;;;;;;6.57;1.60;;;;;;;8.49;100.00;98152.38;4926736;29;20066;-75
2023/11/03 07:27:23;;;;;;;4.45;1.25;;;;;;;8.47;100.00;98149.25;4923257;29;20031;-77
2023/11/03 07:29:48;;;;;;;6.55;1.20;;;;;;;8.51;100.00;98162.72;4926105;29;20058;-73
2023/11/03 07:32:14;;;;;;;5.47;1.40;;;;;;;8.52;100.00;98159.72;4924206;29;20062;-73
2023/11/03 07:34:42;;;;;;;8.15;1.25;;;;;;;8.55;100.00;98158.34;4910072;29;20045;-74
2023/11/03 07:37:08;;;;;;;5.22;1.85;;;;;;;8.56;100.00;98150.00;4920021;29;20043;-77
2023/11/03 07:39:34;;;;;;;7.10;1.55;;;;;;;8.58;100.00;98163.03;4908102;29;20134;-76
2023/11/03 07:42:00;;;;;;;8.20;2.50;;;;;;;8.60;100.00;98147.47;4942638;29;20024;-76
2023/11/03 07:44:26;;;;;;;17.13;4.78;;;;;;;8.63;100.00;98160.19;4912895;29;20035;-76
2023/11/03 07:46:51;;;;;;;10.45;3.00;;;;;;;8.66;100.00;98148.88;4922710;29;20036;-76
2023/11/03 07:49:17;;;;;;;14.32;5.43;;;;;;;8.69;100.00;98145.56;4917122;29;20116;-77
2023/11/03 07:51:47;;;;;;;9.18;3.15;;;;;;;8.69;100.00;98146.34;4926799;29;20031;-76
2023/11/03 07:54:15;;;;;;;10.13;3.83;;;;;;;8.74;100.00;98146.19;4926973;29;20038;-75
2023/11/03 07:56:42;;;;;;;8.20;1.33;;;;;;;8.77;100.00;98143.97;4897924;29;20043;-77
2023/11/03 07:59:08;;;;;;;4.95;1.25;;;;;;;8.78;100.00;98132.97;4940749;28;20039;-79
2023/11/03 08:01:35;;;;;;;;;;;;;;;8.78;100.00;98135.63;4940297;29;20041;-74
2023/11/03 08:04:01;;;;;;;3.92;1.30;;;;;;;8.79;100.00;98139.88;4935651;29;19981;-78
2023/11/03 08:06:27;;;;;;;2.97;1.15;;;;;;;8.82;100.00;98141.13;4914535;29;20406;-77
2023/11/03 08:08:55;;;;;;;4.18;1.63;;;;;;;8.80;100.00;98133.41;4924761;29;20043;-79
2023/11/03 08:11:21;;;;;;;2.78;1.30;;;;;;;8.83;100.00;98143.47;4926820;29;20106;-78
2023/11/03 08:13:46;;;;;;;3.30;1.10;;;;;;;8.86;100.00;98136.69;4925903;29;20107;-74
2023/11/03 08:16:13;;;;;;;6.45;1.88;;;;;;;8.87;100.00;98143.59;4913154;29;20043;-76
2023/11/03 08:18:39;;;;;;;3.42;1.02;;;;;;;8.87;100.00;98144.38;4921987;29;20828;-78
2023/11/03 08:21:07;;;;;;;3.45;1.48;;;;;;;8.89;100.00;98146.75;4941106;29;20133;-78
2023/11/03 08:23:35;;;;;;;4.40;1.17;;;;;;;8.88;100.00;98155.84;4923050;29;20035;-76
2023/11/03 08:26:01;;;;;;;3.35;1.52;;;;;;;8.87;100.00;98157.72;4912199;29;20035;-77
2023/11/03 08:28:27;;;;;;;3.72;1.38;;;;;;;8.87;100.00;98168.41;4927887;29;20094;-74
2023/11/03 08:30:53;;;;;;;4.15;1.63;;;;;;;8.87;100.00;98160.38;4913543;29;20062;-73
2023/11/03 08:33:19;;;;;;;4.50;1.10;;;;;;;8.86;100.00;98169.50;4925626;29;20039;-73
2023/11/03 08:35:45;;;;;;;4.25;1.45;;;;;;;8.89;100.00;98174.22;4892736;29;20043;-73
2023/11/03 08:38:12;;;;;;;4.63;1.40;;;;;;;8.89;100.00;98178.78;4940153;29;20059;-74
2023/11/03 08:40:39;;;;;;;3.85;1.40;;;;;;;8.91;100.00;98177.34;4921440;29;20126;-75
2023/11/03 08:43:04;;;;;;;4.38;1.52;;;;;;;8.94;100.00;98186.59;4921866;29;20122;-74
2023/11/03 08:45:30;;;;;;;3.88;1.17;;;;;;;8.95;100.00;98188.19;4908652;29;20040;-73
2023/11/03 08:47:56;;;;;;;6.28;2.70;;;;;;;8.96;100.00;98192.41;4909753;29;20576;-73
2023/11/03 08:50:22;;;;;;;;;;;;;;;8.98;100.00;98188.31;4946414;28;20601;-73
2023/11/03 08:52:47;;;;;;;4.38;1.58;;;;;;;9.00;100.00;98196.75;4908400;29;20274;-78
2023/11/03 08:55:14;;;;;;;3.47;1.17;;;;;;;9.02;100.00;98194.56;4925730;29;20162;-77
2023/11/03 08:57:42;;;;;;;5.43;1.23;;;;;;;9.00;100.00;98188.75;4926201;29;20042;-74
2023/11/03 09:00:15;;;;;;;3.80;1.10;;;;;;;9.03;100.00;98214.81;4913822;29;20112;-74
2023/11/03 09:02:42;;;;;;;5.93;1.63;;;;;;;9.01;100.00;98210.91;4914419;29;20567;-73
2023/11/03 09:05:11;;;;;;;5.57;1.38;;;;;;;9.03;100.00;98228.16;4927509;29;20110;-76
2023/11/03 09:07:40;;;;;;;3.88;0.73;;;;;;;9.06;100.00;98217.94;4921640;29;20039;-76
2023/11/03 09:10:06;;;;;;;8.77;1.45;;;;;;;9.07;100.00;98224.84;4910954;29;20639;-75
2023/11/03 09:12:40;;;;;;;2.97;1.17;;;;;;;9.07;100.00;98228.31;4942521;29;20130;-74
2023/11/03 09:15:07;;;;;;;5.35;1.48;;;;;;;9.08;100.00;98226.41;4909069;29;20691;-74
2023/11/03 09:17:35;;;;;;;5.82;1.02;;;;;;;9.10;100.00;98224.22;4941731;29;20032;-73
2023/11/03 09:20:04;;;;;;;4.43;1.35;;;;;;;9.14;100.00;98235.81;4924606;29;20047;-74
2023/11/03 09:22:31;;;;;;;5.63;1.10;;;;;;;9.16;100.00;98231.72;4924944;29;20035;-76
2023/11/03 09:24:57;;;;;;;4.50;1.60;;;;;;;9.16;100.00;98226.41;4938108;29;20071;-76
2023/11/03 09:27:25;;;;;;;3.65;0.88;;;;;;;9.19;100.00;98227.63;4923967;29;20059;-72
2023/11/03 09:29:53;;;;;;;4.50;1.15;;;;;;;9.23;100.00;98225.91;4916591;29;20064;-73
2023/11/03 09:32:19;;;;;;;6.72;1.13;;;;;;;9.28;100.00;98228.41;4943071;29;20074;-76
2023/11/03 09:34:46;;;;;;;4.38;1.35;;;;;;;9.35;100.00;98228.66;4925626;29;20161;-73
2023/11/03 09:37:12;;;;;;;;;;;;;;;9.41;100.00;98231.91;4910828;29;20078;-74
2023/11/03 09:39:39;;;;;;;3.88;1.00;;;;;;;9.43;100.00;98235.84;4927623;29;19925;-73
2023/11/03 09:42:05;;;;;;;4.07;1.67;;;;;;;9.47;100.00;98236.75;4918846;29;20105;-75
2023/11/03 09:44:34;;;;;;;7.63;1.17;;;;;;;9.51;100.00;98243.03;4910199;29;20139;-73
2023/11/03 09:47:01;;;;;;;3.90;1.23;;;;;;;9.54;100.00;98241.59;4923592;29;20059;-73
2023/11/03 09:49:28;;;;;;;5.07;1.30;;;;;;;9.56;100.00;98234.84;4925011;29;20048;-74
2023/11/03 09:52:09;;;;;;;5.50;1.70;;;;;;;9.64;100.00;98251.13;4941734;29;20035;-75
2023/11/03 09:54:36;;;;;;;4.00;1.10;;;;;;;9.65;100.00;98244.69;4907364;29;20126;-74
2023/11/03 09:57:08;;;;;;;5.00;1.58;;;;;;;9.66;100.00;98256.94;4908821;29;20078;-75
2023/11/03 09:59:39;;;;;;;3.05;1.10;;;;;;;9.71;100.00;98257.53;4911647;29;20127;-74
2023/11/03 10:02:09;;;;;;;6.63;1.70;;;;;;;9.77;100.00;98255.47;4922094;29;20039;-75
2023/11/03 10:04:38;;;;;;;4.63;1.35;;;;;;;9.80;100.00;98252.13;4927748;29;20121;-75
2023/11/03 10:07:05;;;;;;;8.13;1.65;;;;;;;9.79;100.00;98247.88;4924341;29;20039;-74
2023/11/03 10:09:32;;;;;;;9.32;1.42;;;;;;;9.81;100.00;98256.34;4938722;29;20043;-75
2023/11/03 10:12:00;;;;;;;4.25;1.85;;;;;;;9.85;100.00;98249.28;4924795;29;20035;-76
2023/11/03 10:14:28;;;;;;;6.32;1.20;;;;;;;9.91;100.00;98255.22;4924801;29;20046;-74
2023/11/03 10:16:57;;;;;;;3.80;1.52;;;;;;;9.95;100.00;98245.41;4911868;29;20042;-77
2023/11/03 10:19:25;;;;;;;4.47;1.30;;;;;;;9.99;100.00;98252.47;4920974;29;20066;-74
2023/11/03 10:21:51;;;;;;;6.22;1.35;;;;;;;10.01;100.00;98247.56;4908989;29;20470;-72
2023/11/03 10:24:17;;;;;;;4.55;1.25;;;;;;;10.10;100.00;98242.19;4914211;29;20090;-74
2023/11/03 10:26:44;;;;;;;3.38;1.20;;;;;;;10.19;100.00;98244.78;4915803;29;20086;-74
2023/11/03 10:29:12;;;;;;;6.53;1.80;;;;;;;10.22;100.00;98244.09;4904767;29;20444;-74
2023/11/03 10:31:39;;;;;;;4.18;1.30;;;;;;;10.32;100.00;98249.09;4911084;29;20494;-74
2023/11/03 10:34:06;;;;;;;3.85;1.80;;;;;;;10.37;100.00;98251.56;4923396;29;20050;-76
2023/11/03 10:36:32;;;;;;;4.45;1.20;;;;;;;10.33;100.00;98262.13;4942484;29;20035;-75
2023/11/03 10:38:58;;;;;;;4.25;1.00;;;;;;;10.31;100.00;98266.25;4911873;29;20035;-78
2023/11/03 10:41:25;;;;;;;3.45;1.58;;;;;;;10.20;100.00;98262.38;4922691;29;20123;-78
2023/11/03 10:43:58;;;;;;;5.80;1.13;;;;;;;10.12;100.00;98264.81;4924041;29;20127;-75
2023/11/03 10:46:36;;;;;;;4.78;1.63;;;;;;;10.06;100.00;98263.44;4940036;29;20855;-76
2023/11/03 10:49:21;;;;;;;6.32;1.95;;;;;;;10.08;100.00;98274.56;4924198;29;20039;-75
2023/11/03 10:52:11;;;;;;;4.88;1.70;;;;;;;10.08;100.00;98276.47;4937030;29;20035;-76
2023/11/03 10:54:50;;;;;;;4.47;1.52;;;;;;;10.08;100.00;98269.22;4909777;29;20047;-76
2023/11/03 10:57:16;;;;;;;;;;;;;;;10.19;100.00;98263.50;4926465;29;20074;-77
2023/11/03 10:59:47;;;;;;;5.32;1.55;;;;;;;10.25;100.00;98275.59;4937449;29;20365;-75
2023/11/03 11:02:39;;;;;;;6.30;1.65;;;;;;;10.26;100.00;98271.81;4923665;29;20130;-76
2023/11/03 11:05:17;;;;;;;6.95;2.00;;;;;;;10.33;100.00;98280.88;4926382;29;20031;-77
2023/11/03 11:07:52;;;;;;;6.43;1.98;;;;;;;10.27;100.00;98289.41;4915916;29;20095;-77
2023/11/03 11:10:39;;;;;;;6.32;1.73;;;;;;;10.30;100.00;98297.59;4927998;29;20038;-77
2023/11/03 11:13:14;;;;;;;8.18;1.88;;;;;;;10.37;100.00;98308.53;4928816;29;20074;-76
2023/11/03 11:15:42;;;;;;;4.15;1.60;;;;;;;10.46;100.00;98292.41;4937970;29;20031;-78
2023/11/03 11:18:15;;;;;;;6.97;2.38;;;;;;;10.57;100.00;98288.22;4929291;29;20036;-77
2023/11/03 11:20:51;;;;;;;6.38;1.58;;;;;;;10.70;100.00;98307.00;4943854;29;20035;-76
2023/11/03 11:23:18;;;;;;;6.75;1.52;;;;;;;10.66;100.00;98301.53;4928732;29;20108;-77
2023/11/03 11:25:44;;;;;;;8.98;1.80;;;;;;;10.60;100.00;98303.63;4915021;29;20501;-78
2023/11/03 11:28:40;;;;;;;6.88;2.33;;;;;;;10.62;100.00;98312.09;4908710;29;20042;-77
2023/11/03 11:31:25;;;;;;;3.90;2.03;;;;;;;10.69;100.00;98321.50;4942589;28;20524;-79
2023/11/03 11:34:30;;;;;;;5.97;1.60;;;;;;;10.76;100.00;98316.38;4928271;29;20079;-78